Gibraltar, Gibraltar

5:58 PM CEST on April 27, 2017 (GMT +0200)
Calle Oviedo | | Change Station

Elev 26 ft 36.17 °N, 5.35 °W | Updated 4 minutes ago

Mostly Cloudy
Mostly Cloudy
77.0 °F
Feels Like 78 °F
N
1.9
Wind Variable Wind from WNW
Gusts 6.2 mph

Today
High -- | Low -- °F
--% Chance of Precip.
Yesterday
High -- | Low -- °F
Precip. -- in
Pressure 29.77 in
Visibility 6.2 miles
Clouds Few 3000 ft
Mostly Cloudy 25000 ft
Heat Index 78 °F
Dew Point 53 °F
Humidity 43%
Rainfall Not available.
Snow Depth Not available.
7:33 AM 9:05 PM
New Moon, 2% visible
METAR LXGB 271550Z 26003KT 9999 FEW030 BKN250 24/13 Q1008 NOSIG
Pressure 29.77 in
Visibility 6.2 miles
Clouds Few 3000 ft
Mostly Cloudy 25000 ft
Heat Index 78 °F
Dew Point 53 °F
Humidity 43%
Rainfall Not available.
Snow Depth Not available.
7:33 AM 9:05 PM
New Moon, 2% visible
METAR LXGB 271550Z 26003KT 9999 FEW030 BKN250 24/13 Q1008 NOSIG

Get Severe Weather Alerts

Thanks for signing up!

Be on the lookout for a verification email in your inbox.

You'll start receiving the daily forecast at 8 AM.

×

10-Day Weather Forecast

×

Almanac

Astronomy

Apr. 27, 2017 Rise Set
Actual Time
Civil Twilight
Nautical Twilight
Astronomical Twilight
Moon
Length of Visible Light
Length of Day
Tomorrow will be .
, % of the Moon is Illuminated

Today's Extremes

Country Highs Country Lows

Community

WunderPhotos

WunderBlog® & News

Nearby

Air Quality

  Air Quality AQ Index Pollutant
Not available.

Snow Depth

Station Depth Elevation

Earthquake Activity

City Distance Mag. Time & Date
Minimum magnitude displayed is 2.5.

Coastal Water Temperatures

Place Temperature

Stations

Nearby Weather Stations

Station Location Temp. Windchill Dew Point Humidity Wind Precip. Elev Updated Type